createdAt,value
2022-12-27T00:00:49.341Z,6.44
2022-12-27T00:01:49.549Z,6.44
2022-12-27T00:02:49.619Z,6.41
2022-12-27T00:03:49.780Z,6.38
2022-12-27T00:04:49.948Z,6.35
2022-12-27T00:05:50.125Z,6.31
2022-12-27T00:06:50.295Z,6.28
2022-12-27T00:07:50.471Z,6.22
2022-12-27T00:08:50.642Z,6.20
2022-12-27T00:09:50.830Z,6.17
2022-12-27T00:10:51.019Z,6.12
2022-12-27T00:11:56.366Z,6.10
2022-12-27T00:12:52.353Z,6.06
2022-12-27T00:13:51.523Z,6.01
2022-12-27T00:14:51.690Z,5.98
2022-12-27T00:15:51.899Z,5.94
2022-12-27T00:16:52.133Z,5.91
2022-12-27T00:17:52.296Z,5.90
2022-12-27T00:18:52.545Z,5.88
2022-12-27T00:19:52.624Z,5.88
2022-12-27T00:20:52.784Z,5.87
2022-12-27T00:21:52.981Z,5.87
2022-12-27T00:22:53.150Z,5.84
2022-12-27T00:23:53.327Z,5.83
2022-12-27T00:24:53.518Z,5.80
2022-12-27T00:25:53.730Z,5.79
2022-12-27T00:26:53.959Z,5.76
2022-12-27T00:27:54.039Z,5.74
2022-12-27T00:28:54.213Z,5.77
2022-12-27T00:29:54.428Z,5.79
2022-12-27T00:30:54.614Z,5.80
2022-12-27T00:31:54.884Z,5.81
2022-12-27T00:32:54.967Z,5.84
2022-12-27T00:33:55.170Z,5.83
2022-12-27T00:34:55.330Z,5.87
2022-12-27T00:35:55.556Z,5.87
2022-12-27T00:36:55.645Z,5.84
2022-12-27T00:37:55.833Z,5.84
2022-12-27T00:38:56.151Z,5.81
2022-12-27T00:39:56.225Z,5.81
2022-12-27T00:40:56.394Z,5.80
2022-12-27T00:41:56.586Z,5.79
2022-12-27T00:42:56.947Z,5.76
2022-12-27T00:43:57.001Z,5.73
2022-12-27T00:44:57.167Z,5.72
2022-12-27T00:45:57.366Z,5.69
2022-12-27T00:46:57.538Z,5.64
2022-12-27T00:47:57.731Z,5.61
2022-12-27T00:48:57.896Z,5.56
2022-12-27T00:49:58.068Z,5.54
2022-12-27T00:50:58.235Z,5.51
2022-12-27T00:51:58.420Z,5.49
2022-12-27T00:52:58.589Z,5.46
2022-12-27T00:53:58.770Z,5.44
2022-12-27T00:54:58.939Z,5.43
2022-12-27T00:55:59.129Z,5.38
2022-12-27T00:56:59.319Z,5.37
2022-12-27T00:57:59.503Z,5.33
2022-12-27T00:58:59.685Z,5.34
2022-12-27T01:00:03.402Z,5.34
2022-12-27T01:01:01.001Z,5.31
2022-12-27T01:02:00.318Z,5.28
2022-12-27T01:03:00.308Z,5.25
2022-12-27T01:04:00.536Z,5.23
2022-12-27T01:05:00.628Z,5.22
2022-12-27T01:06:00.810Z,5.20
2022-12-27T01:07:01.017Z,5.16
2022-12-27T01:08:01.217Z,5.13
2022-12-27T01:09:01.433Z,5.08
2022-12-27T01:10:01.609Z,5.10
2022-12-27T01:11:01.837Z,5.10
2022-12-27T01:12:02.033Z,5.05
2022-12-27T01:13:02.200Z,5.05
2022-12-27T01:14:02.410Z,5.04
2022-12-27T01:15:03.578Z,5.02
2022-12-27T01:16:02.789Z,5.04
2022-12-27T01:17:03.024Z,5.01
2022-12-27T01:18:03.156Z,4.98
2022-12-27T01:19:03.234Z,4.95
2022-12-27T01:20:03.457Z,4.94
2022-12-27T01:21:03.626Z,4.89
2022-12-27T01:22:03.863Z,4.89
2022-12-27T01:23:04.035Z,4.89
2022-12-27T01:24:04.225Z,4.90
2022-12-27T01:25:04.430Z,4.87
2022-12-27T01:26:04.591Z,4.86
2022-12-27T01:27:04.814Z,4.84
2022-12-27T01:28:05.069Z,4.82
2022-12-27T01:29:05.147Z,4.82
2022-12-27T01:30:05.379Z,4.82
2022-12-27T01:31:05.457Z,4.78
2022-12-27T01:32:05.743Z,4.76
2022-12-27T01:33:05.761Z,4.74
2022-12-27T01:34:05.937Z,4.75
2022-12-27T01:35:06.156Z,4.74
2022-12-27T01:36:06.244Z,4.70
2022-12-27T01:37:06.440Z,4.71
2022-12-27T01:38:06.647Z,4.67
2022-12-27T01:39:06.839Z,4.66
2022-12-27T01:40:07.062Z,4.66
2022-12-27T01:41:07.144Z,4.67
2022-12-27T01:42:07.365Z,4.70
2022-12-27T01:43:07.588Z,4.70
2022-12-27T01:44:07.670Z,4.68
2022-12-27T01:45:07.873Z,4.67
2022-12-27T01:46:08.146Z,4.68
2022-12-27T01:47:08.289Z,4.64
2022-12-27T01:48:08.508Z,4.63
2022-12-27T01:49:08.689Z,4.64
2022-12-27T01:50:08.901Z,4.60
2022-12-27T01:51:09.103Z,4.58
2022-12-27T01:52:09.328Z,4.58
2022-12-27T01:53:09.419Z,4.61
2022-12-27T01:54:09.616Z,4.60
2022-12-27T01:55:09.883Z,4.60
2022-12-27T01:56:09.963Z,4.57
2022-12-27T01:57:10.167Z,4.56
2022-12-27T01:58:10.363Z,4.52
2022-12-27T01:59:10.562Z,4.53
2022-12-27T02:00:10.778Z,4.52
2022-12-27T02:01:11.095Z,4.50
2022-12-27T02:02:11.907Z,4.50
2022-12-27T02:03:11.400Z,4.50
2022-12-27T02:04:11.593Z,4.49
2022-12-27T02:05:11.801Z,4.49
2022-12-27T02:06:12.001Z,4.48
2022-12-27T02:07:12.211Z,4.49
2022-12-27T02:08:12.422Z,4.52
2022-12-27T02:09:12.636Z,4.52
2022-12-27T02:10:12.842Z,4.50
2022-12-27T02:11:13.028Z,4.49
2022-12-27T02:12:13.259Z,4.50
2022-12-27T02:13:13.333Z,4.49
2022-12-27T02:14:13.549Z,4.50
2022-12-27T02:15:13.750Z,4.50
2022-12-27T02:16:13.960Z,4.52
2022-12-27T02:17:14.169Z,4.50
2022-12-27T02:18:14.380Z,4.49
2022-12-27T02:19:14.592Z,4.48
2022-12-27T02:20:14.802Z,4.46
2022-12-27T02:21:15.008Z,4.46
2022-12-27T02:22:15.215Z,4.46
2022-12-27T02:23:15.414Z,4.46
2022-12-27T02:24:15.625Z,4.45
2022-12-27T02:25:15.742Z,4.45
2022-12-27T02:26:15.947Z,4.45
2022-12-27T02:27:16.155Z,4.43
2022-12-27T02:28:16.357Z,4.43
2022-12-27T02:29:16.549Z,4.45
2022-12-27T02:30:16.765Z,4.43
2022-12-27T02:31:17.015Z,4.45
2022-12-27T02:32:17.119Z,4.43
2022-12-27T02:33:17.311Z,4.42
2022-12-27T02:34:17.520Z,4.43
2022-12-27T02:35:17.716Z,4.40
2022-12-27T02:36:17.913Z,4.39
2022-12-27T02:37:18.113Z,4.38
2022-12-27T02:38:18.314Z,4.36
2022-12-27T02:39:18.501Z,4.32
2022-12-27T02:40:18.707Z,4.31
2022-12-27T02:41:18.934Z,4.34
2022-12-27T02:42:19.048Z,4.32
2022-12-27T02:43:19.253Z,4.32
2022-12-27T02:44:19.458Z,4.34
2022-12-27T02:45:19.667Z,4.32
2022-12-27T02:46:21.717Z,4.31
2022-12-27T02:47:20.035Z,4.31
2022-12-27T02:48:20.244Z,4.30
2022-12-27T02:49:20.457Z,4.30
2022-12-27T02:50:20.656Z,4.30
2022-12-27T02:51:20.895Z,4.27
2022-12-27T02:52:21.002Z,4.25
2022-12-27T02:53:21.123Z,4.21
2022-12-27T02:54:21.202Z,4.20
2022-12-27T02:55:21.422Z,4.18
2022-12-27T02:56:21.628Z,4.16
2022-12-27T02:57:21.843Z,4.16
2022-12-27T02:58:22.057Z,4.18
2022-12-27T02:59:22.281Z,4.16
2022-12-27T03:00:22.370Z,4.14
2022-12-27T03:01:22.648Z,4.13
2022-12-27T03:02:22.923Z,4.14
2022-12-27T03:03:22.945Z,4.13
2022-12-27T03:04:23.053Z,4.16
2022-12-27T03:05:23.161Z,4.14
2022-12-27T03:06:23.282Z,4.12
2022-12-27T03:07:23.395Z,4.13
2022-12-27T03:08:23.593Z,4.14
2022-12-27T03:09:23.796Z,4.14
2022-12-27T03:10:23.990Z,4.12
2022-12-27T03:11:24.221Z,4.10
2022-12-27T03:12:24.416Z,4.10
2022-12-27T03:13:24.521Z,4.10
2022-12-27T03:14:24.760Z,4.10
2022-12-27T03:15:29.010Z,4.12
2022-12-27T03:16:26.076Z,4.12
2022-12-27T03:17:25.227Z,4.12
2022-12-27T03:18:25.342Z,4.12
2022-12-27T03:19:25.547Z,4.12
2022-12-27T03:20:25.755Z,4.10
2022-12-27T03:21:25.973Z,4.09
2022-12-27T03:22:26.182Z,4.13
2022-12-27T03:23:26.378Z,4.14
2022-12-27T03:24:26.587Z,4.20
2022-12-27T03:25:26.799Z,4.20
2022-12-27T03:26:27.008Z,4.20
2022-12-27T03:27:27.237Z,4.22
2022-12-27T03:28:27.323Z,4.24
2022-12-27T03:29:27.536Z,4.22
2022-12-27T03:30:27.751Z,4.22
2022-12-27T03:31:27.992Z,4.22
2022-12-27T03:32:28.084Z,4.20
2022-12-27T03:33:28.336Z,4.22
2022-12-27T03:34:28.449Z,4.22
2022-12-27T03:35:28.634Z,4.20
2022-12-27T03:36:28.872Z,4.20
2022-12-27T03:37:29.031Z,4.18
2022-12-27T03:38:29.128Z,4.14
2022-12-27T03:39:29.322Z,4.16
2022-12-27T03:40:29.527Z,4.20
2022-12-27T03:41:29.753Z,4.20
2022-12-27T03:42:29.981Z,4.21
2022-12-27T03:43:30.083Z,4.20
2022-12-27T03:44:30.305Z,4.20
2022-12-27T03:45:30.408Z,4.20
2022-12-27T03:46:30.669Z,4.20
2022-12-27T03:47:30.920Z,4.21
2022-12-27T03:48:31.003Z,4.21
2022-12-27T03:49:31.220Z,4.22
2022-12-27T03:50:31.428Z,4.22
2022-12-27T03:51:31.645Z,4.22
2022-12-27T03:52:31.887Z,4.22
2022-12-27T03:53:31.984Z,4.22
2022-12-27T03:54:32.269Z,4.22
2022-12-27T03:55:33.671Z,4.21
2022-12-27T03:56:32.478Z,4.21
2022-12-27T03:57:32.707Z,4.20
2022-12-27T03:58:32.808Z,4.20
2022-12-27T03:59:33.018Z,4.18
2022-12-27T04:00:33.221Z,4.20
2022-12-27T04:01:33.453Z,4.20
2022-12-27T04:02:33.743Z,4.21
2022-12-27T04:03:33.851Z,4.24
2022-12-27T04:04:33.957Z,4.24
2022-12-27T04:05:34.154Z,4.25
2022-12-27T04:06:34.354Z,4.24
2022-12-27T04:07:34.591Z,4.24
2022-12-27T04:08:34.728Z,4.28
2022-12-27T04:09:34.827Z,4.28
2022-12-27T04:10:34.953Z,4.28
2022-12-27T04:11:35.051Z,4.25
2022-12-27T04:12:35.331Z,4.24
2022-12-27T04:13:35.417Z,4.24
2022-12-27T04:14:35.616Z,4.27
2022-12-27T04:15:35.854Z,4.27
2022-12-27T04:16:36.055Z,4.24
2022-12-27T04:17:36.270Z,4.27
2022-12-27T04:18:36.465Z,4.30
2022-12-27T04:19:36.679Z,4.27
2022-12-27T04:20:36.881Z,4.27
2022-12-27T04:21:37.101Z,4.27
2022-12-27T04:22:37.222Z,4.27
2022-12-27T04:23:37.459Z,4.28
2022-12-27T04:24:37.548Z,4.31
2022-12-27T04:25:37.759Z,4.34
2022-12-27T04:26:37.980Z,4.38
2022-12-27T04:27:38.228Z,4.36
2022-12-27T04:28:38.341Z,4.36
2022-12-27T04:29:38.562Z,4.34
2022-12-27T04:30:38.688Z,4.32
2022-12-27T04:31:38.944Z,4.34
2022-12-27T04:32:39.006Z,4.32
2022-12-27T04:33:39.205Z,4.34
2022-12-27T04:34:39.372Z,4.34
2022-12-27T04:35:39.563Z,4.39
2022-12-27T04:36:39.728Z,4.40
2022-12-27T04:37:39.855Z,4.40
2022-12-27T04:38:39.959Z,4.38
2022-12-27T04:39:40.190Z,4.36
2022-12-27T04:40:40.273Z,4.36
2022-12-27T04:41:40.480Z,4.38
2022-12-27T04:42:40.690Z,4.40
2022-12-27T04:43:40.927Z,4.39
2022-12-27T04:44:41.003Z,4.36
2022-12-27T04:45:41.219Z,4.36
2022-12-27T04:46:41.406Z,4.36
2022-12-27T04:47:41.499Z,4.39
2022-12-27T04:48:41.593Z,4.39
2022-12-27T04:49:41.802Z,4.39
2022-12-27T04:50:42.016Z,4.40
2022-12-27T04:51:42.229Z,4.40
2022-12-27T04:52:42.328Z,4.39
2022-12-27T04:53:42.526Z,4.38
2022-12-27T04:54:42.720Z,4.39
2022-12-27T04:55:42.923Z,4.40
2022-12-27T04:56:43.114Z,4.42
2022-12-27T04:57:43.399Z,4.43
2022-12-27T04:58:43.493Z,4.43
2022-12-27T04:59:43.707Z,4.45
2022-12-27T05:00:43.902Z,4.49
2022-12-27T05:01:44.070Z,4.50
2022-12-27T05:02:44.247Z,4.52
2022-12-27T05:03:44.250Z,4.53
2022-12-27T05:04:44.341Z,4.56
2022-12-27T05:05:44.526Z,4.60
2022-12-27T05:06:44.647Z,4.61
2022-12-27T05:07:44.879Z,4.58
2022-12-27T05:08:45.075Z,4.56
2022-12-27T05:09:45.191Z,4.52
2022-12-27T05:10:45.325Z,4.50
2022-12-27T05:11:45.449Z,4.50
2022-12-27T05:12:52.634Z,4.49
2022-12-27T05:13:45.805Z,4.49
2022-12-27T05:14:46.008Z,4.49
2022-12-27T05:15:46.269Z,4.50
2022-12-27T05:16:46.366Z,4.52
2022-12-27T05:17:46.584Z,4.52
2022-12-27T05:18:46.678Z,4.50
2022-12-27T05:19:46.870Z,4.52
2022-12-27T05:20:47.075Z,4.52
2022-12-27T05:21:47.280Z,4.50
2022-12-27T05:22:47.495Z,4.50
2022-12-27T05:23:47.697Z,4.46
2022-12-27T05:24:47.888Z,4.46
2022-12-27T05:25:48.086Z,4.43
2022-12-27T05:26:48.307Z,4.46
2022-12-27T05:27:48.515Z,4.46
2022-12-27T05:28:48.710Z,4.49
2022-12-27T05:29:48.946Z,4.48
2022-12-27T05:30:49.037Z,4.49
2022-12-27T05:31:49.316Z,4.48
2022-12-27T05:32:49.426Z,4.48
2022-12-27T05:33:49.630Z,4.46
2022-12-27T05:34:49.830Z,4.50
2022-12-27T05:35:50.035Z,4.50
2022-12-27T05:36:50.222Z,4.56
2022-12-27T05:37:54.899Z,4.58
2022-12-27T05:38:50.574Z,4.58
2022-12-27T05:39:50.792Z,4.58
2022-12-27T05:40:51.026Z,4.60
2022-12-27T05:41:51.122Z,4.60
2022-12-27T05:42:51.341Z,4.61
2022-12-27T05:43:51.534Z,4.63
2022-12-27T05:44:51.736Z,4.63
2022-12-27T05:45:51.934Z,4.61
2022-12-27T05:46:52.135Z,4.64
2022-12-27T05:47:52.328Z,4.64
2022-12-27T05:48:52.530Z,4.66
2022-12-27T05:49:52.742Z,4.67
2022-12-27T05:50:52.930Z,4.67
2022-12-27T05:51:53.138Z,4.68
2022-12-27T05:52:53.346Z,4.68
2022-12-27T05:53:53.552Z,4.66
2022-12-27T05:54:53.773Z,4.66
2022-12-27T05:55:53.867Z,4.64
2022-12-27T05:56:54.043Z,4.63
2022-12-27T05:57:54.256Z,4.61
2022-12-27T05:58:54.463Z,4.61
2022-12-27T05:59:54.642Z,4.57
2022-12-27T06:00:54.827Z,4.58
2022-12-27T06:01:55.187Z,4.58
2022-12-27T06:02:55.250Z,4.56
2022-12-27T06:03:55.302Z,4.57
2022-12-27T06:04:55.479Z,4.56
2022-12-27T06:05:55.672Z,4.56
2022-12-27T06:06:55.874Z,4.53
2022-12-27T06:07:56.076Z,4.56
2022-12-27T06:08:56.255Z,4.56
2022-12-27T06:09:56.447Z,4.53
2022-12-27T06:10:56.623Z,4.52
2022-12-27T06:11:56.824Z,4.53
2022-12-27T06:12:57.021Z,4.56
2022-12-27T06:13:57.223Z,4.57
2022-12-27T06:14:57.414Z,4.57
2022-12-27T06:15:57.602Z,4.53
2022-12-27T06:16:57.790Z,4.53
2022-12-27T06:17:58.016Z,4.52
2022-12-27T06:18:58.192Z,4.49
2022-12-27T06:19:58.410Z,4.48
2022-12-27T06:20:58.603Z,4.46
2022-12-27T06:21:58.810Z,4.45
2022-12-27T06:22:59.018Z,4.45
2022-12-27T06:23:59.231Z,4.43
2022-12-27T06:24:59.429Z,4.43
2022-12-27T06:25:59.642Z,4.43
2022-12-27T06:26:59.833Z,4.42
2022-12-27T06:28:00.049Z,4.43
2022-12-27T06:29:00.256Z,4.42
2022-12-27T06:30:00.444Z,4.42
2022-12-27T06:31:00.662Z,4.43
2022-12-27T06:32:00.890Z,4.40
2022-12-27T06:33:00.973Z,4.38
2022-12-27T06:34:01.187Z,4.38
2022-12-27T06:35:01.387Z,4.36
2022-12-27T06:36:01.585Z,4.32
2022-12-27T06:37:01.771Z,4.31
2022-12-27T06:38:01.990Z,4.30
2022-12-27T06:39:02.194Z,4.30
2022-12-27T06:40:02.362Z,4.34
2022-12-27T06:41:02.556Z,4.34
2022-12-27T06:42:02.776Z,4.38
2022-12-27T06:43:02.983Z,4.34
2022-12-27T06:44:03.209Z,4.38
2022-12-27T06:45:03.401Z,4.38
2022-12-27T06:46:03.734Z,4.40
2022-12-27T06:47:03.749Z,4.43
2022-12-27T06:48:03.973Z,4.43
2022-12-27T06:49:04.081Z,4.45
2022-12-27T06:50:04.268Z,4.45
2022-12-27T06:51:04.469Z,4.43
2022-12-27T06:52:04.659Z,4.45
2022-12-27T06:53:04.886Z,4.43
2022-12-27T06:54:04.990Z,4.43
2022-12-27T06:55:05.191Z,4.43
2022-12-27T06:56:05.378Z,4.43
2022-12-27T06:57:05.626Z,4.46
2022-12-27T06:58:05.750Z,4.45
2022-12-27T06:59:05.957Z,4.48
2022-12-27T07:00:06.143Z,4.46
2022-12-27T07:01:06.317Z,4.48
2022-12-27T07:02:06.607Z,4.45
2022-12-27T07:03:06.636Z,4.45
2022-12-27T07:04:06.703Z,4.46
2022-12-27T07:05:06.936Z,4.45
2022-12-27T07:06:07.075Z,4.45
2022-12-27T07:07:12.065Z,4.42
2022-12-27T07:08:08.400Z,4.43
2022-12-27T07:09:07.532Z,4.39
2022-12-27T07:10:07.655Z,4.39
2022-12-27T07:11:07.799Z,4.39
2022-12-27T07:12:07.904Z,4.36
2022-12-27T07:13:08.034Z,4.36
2022-12-27T07:14:08.155Z,4.36
2022-12-27T07:15:08.296Z,4.39
2022-12-27T07:16:08.454Z,4.42
2022-12-27T07:17:08.612Z,4.43
2022-12-27T07:18:08.730Z,4.46
2022-12-27T07:19:08.865Z,4.46
2022-12-27T07:20:08.992Z,4.50
2022-12-27T07:21:09.125Z,4.52
2022-12-27T07:22:09.245Z,4.53
2022-12-27T07:23:11.935Z,4.53
2022-12-27T07:24:10.573Z,4.56
2022-12-27T07:25:09.700Z,4.57
2022-12-27T07:26:09.824Z,4.57
2022-12-27T07:27:09.959Z,4.57
2022-12-27T07:28:10.087Z,4.58
2022-12-27T07:29:10.239Z,4.60
2022-12-27T07:30:10.359Z,4.60
2022-12-27T07:31:10.526Z,4.61
2022-12-27T07:32:10.832Z,4.63
2022-12-27T07:33:10.773Z,4.63
2022-12-27T07:34:10.929Z,4.63
2022-12-27T07:35:11.077Z,4.64
2022-12-27T07:36:11.211Z,4.64
2022-12-27T07:37:11.364Z,4.67
2022-12-27T07:38:11.488Z,4.68
2022-12-27T07:39:11.651Z,4.66
2022-12-27T07:40:11.786Z,4.63
2022-12-27T07:41:11.925Z,4.66
2022-12-27T07:42:12.063Z,4.66
2022-12-27T07:43:12.198Z,4.67
2022-12-27T07:44:12.324Z,4.68
2022-12-27T07:45:12.461Z,4.71
2022-12-27T07:46:12.641Z,4.75
2022-12-27T07:47:12.841Z,4.79
2022-12-27T07:48:12.985Z,4.92
2022-12-27T07:49:17.530Z,5.08
2022-12-27T07:50:14.295Z,5.25
2022-12-27T07:51:13.427Z,5.26
2022-12-27T07:52:13.546Z,5.20
2022-12-27T07:53:13.678Z,5.15
2022-12-27T07:54:13.826Z,5.25
2022-12-27T07:55:13.960Z,5.49
2022-12-27T07:56:14.110Z,5.56
2022-12-27T07:57:14.232Z,5.44
2022-12-27T07:58:14.369Z,5.46
2022-12-27T07:59:14.508Z,5.31
2022-12-27T08:00:14.639Z,5.19
2022-12-27T08:01:14.927Z,5.08
2022-12-27T08:02:15.075Z,5.05
2022-12-27T08:03:15.157Z,4.98
2022-12-27T08:04:15.277Z,4.97
2022-12-27T08:05:15.404Z,4.97
2022-12-27T08:06:15.497Z,4.97
2022-12-27T08:07:15.733Z,4.98
2022-12-27T08:08:15.823Z,4.97
2022-12-27T08:09:16.052Z,4.97
2022-12-27T08:10:16.136Z,4.95
2022-12-27T08:11:16.394Z,4.95
2022-12-27T08:12:16.504Z,4.95
2022-12-27T08:13:16.763Z,4.97
2022-12-27T08:14:16.894Z,4.97
2022-12-27T08:15:17.016Z,4.97
2022-12-27T08:16:17.241Z,4.98
2022-12-27T08:17:17.301Z,4.98
2022-12-27T08:18:17.420Z,5.01
2022-12-27T08:19:17.525Z,5.02
2022-12-27T08:20:17.637Z,5.02
2022-12-27T08:21:17.763Z,5.05
2022-12-27T08:22:17.867Z,5.05
2022-12-27T08:23:17.986Z,5.05
2022-12-27T08:24:18.105Z,5.05
2022-12-27T08:25:18.232Z,5.10
2022-12-27T08:26:18.338Z,5.12
2022-12-27T08:27:18.560Z,5.10
2022-12-27T08:28:18.672Z,5.13
2022-12-27T08:29:18.895Z,5.15
2022-12-27T08:30:19.012Z,5.16
2022-12-27T08:31:19.158Z,5.16
2022-12-27T08:32:19.298Z,5.19
2022-12-27T08:33:19.512Z,5.19
2022-12-27T08:34:19.622Z,5.23
2022-12-27T08:35:50.781Z,5.26
2022-12-27T08:37:21.182Z,5.29
2022-12-27T08:38:20.308Z,5.33
2022-12-27T08:39:20.400Z,5.34
2022-12-27T08:40:20.500Z,5.36
2022-12-27T08:41:20.610Z,5.38
2022-12-27T08:42:20.810Z,5.40
2022-12-27T08:43:21.034Z,5.41
2022-12-27T08:44:21.137Z,5.44
2022-12-27T08:45:21.247Z,5.46
2022-12-27T08:46:21.479Z,5.49
2022-12-27T08:47:21.628Z,5.51
2022-12-27T08:48:21.756Z,5.51
2022-12-27T08:49:21.889Z,5.51
2022-12-27T08:50:22.000Z,5.51
2022-12-27T08:51:32.693Z,5.54
2022-12-27T08:52:23.279Z,5.55
2022-12-27T08:53:22.422Z,5.56
2022-12-27T08:54:22.571Z,5.58
2022-12-27T08:55:22.721Z,5.56
2022-12-27T08:56:22.817Z,5.58
2022-12-27T08:57:23.050Z,5.55
2022-12-27T08:58:23.132Z,5.54
2022-12-27T08:59:23.327Z,5.52
2022-12-27T09:00:23.502Z,5.54
2022-12-27T09:01:23.868Z,5.54
2022-12-27T09:02:23.934Z,5.51
2022-12-27T09:03:24.078Z,5.55
2022-12-27T09:04:24.161Z,5.55
2022-12-27T09:05:24.432Z,5.55
2022-12-27T09:06:24.533Z,5.56
2022-12-27T09:07:24.623Z,5.56
2022-12-27T09:08:24.811Z,5.56
2022-12-27T09:09:25.048Z,5.61
2022-12-27T09:10:25.172Z,5.62
2022-12-27T09:11:25.328Z,5.65
2022-12-27T09:12:25.419Z,5.69
2022-12-27T09:13:25.535Z,5.73
2022-12-27T09:14:25.626Z,5.72
2022-12-27T09:15:25.866Z,5.76
2022-12-27T09:16:25.942Z,5.80
2022-12-27T09:17:26.155Z,5.81
2022-12-27T09:18:26.348Z,5.84
2022-12-27T09:19:26.597Z,5.81
2022-12-27T09:20:26.670Z,5.83
2022-12-27T09:21:26.889Z,5.87
2022-12-27T09:22:27.065Z,5.90
2022-12-27T09:23:27.293Z,5.92
2022-12-27T09:24:27.385Z,5.95
2022-12-27T09:25:27.658Z,5.94
2022-12-27T09:26:27.732Z,5.94
2022-12-27T09:27:27.939Z,5.97
2022-12-27T09:28:28.129Z,6.16
2022-12-27T09:29:28.374Z,7.14
2022-12-27T09:30:28.465Z,7.29
2022-12-27T09:31:28.706Z,7.80
2022-12-27T09:32:28.795Z,7.64
2022-12-27T09:33:28.979Z,7.23
2022-12-27T09:34:29.147Z,7.01
2022-12-27T09:35:30.157Z,6.83
2022-12-27T09:36:29.444Z,6.64
2022-12-27T09:37:29.604Z,6.47
2022-12-27T09:38:29.780Z,7.32
2022-12-27T09:39:29.982Z,8.16
2022-12-27T09:40:30.028Z,8.82
2022-12-27T09:42:33.157Z,9.18
2022-12-27T09:42:52.175Z,9.31
2022-12-27T09:43:31.361Z,9.54
2022-12-27T09:44:30.513Z,9.63
2022-12-27T09:45:30.648Z,9.74
2022-12-27T09:46:30.823Z,9.85
2022-12-27T09:47:30.919Z,9.80
2022-12-27T09:48:33.251Z,9.56
2022-12-27T09:49:31.550Z,9.37
2022-12-27T09:50:31.315Z,8.86
2022-12-27T09:51:31.448Z,8.86
2022-12-27T09:52:31.563Z,8.89
2022-12-27T09:53:31.697Z,8.63
2022-12-27T09:54:31.861Z,8.21
2022-12-27T09:55:31.980Z,8.02
2022-12-27T09:57:01.846Z,7.93
2022-12-27T09:57:33.200Z,7.84
2022-12-27T09:58:32.326Z,7.62
2022-12-27T09:59:32.451Z,7.53
2022-12-27T10:00:35.078Z,8.24
2022-12-27T10:01:32.849Z,8.96
2022-12-27T10:02:32.832Z,9.39
2022-12-27T10:03:32.802Z,9.73
2022-12-27T10:04:52.892Z,9.74
2022-12-27T10:05:34.039Z,9.80
2022-12-27T10:06:33.127Z,9.84
2022-12-27T10:07:33.250Z,9.59
2022-12-27T10:08:33.348Z,9.82
2022-12-27T10:09:33.482Z,10.10
2022-12-27T10:10:33.565Z,10.67
2022-12-27T10:11:33.687Z,10.90
2022-12-27T10:12:33.756Z,10.55
2022-12-27T10:13:33.877Z,9.55
2022-12-27T10:14:33.966Z,9.21
2022-12-27T10:15:34.067Z,9.37
2022-12-27T10:16:34.167Z,9.76
2022-12-27T10:17:34.285Z,9.67
2022-12-27T10:18:34.380Z,9.81
2022-12-27T10:19:34.451Z,9.73
2022-12-27T10:20:34.526Z,9.52
2022-12-27T10:21:34.643Z,9.59
2022-12-27T10:22:34.760Z,10.03
2022-12-27T10:23:34.870Z,9.99
2022-12-27T10:24:34.974Z,10.15
2022-12-27T10:25:35.061Z,10.51
2022-12-27T10:26:35.223Z,10.57
2022-12-27T10:27:35.314Z,9.76
2022-12-27T10:28:35.431Z,9.22
2022-12-27T10:29:36.527Z,9.30
2022-12-27T10:30:35.634Z,9.66
2022-12-27T10:31:36.008Z,9.66
2022-12-27T10:32:35.869Z,8.99
2022-12-27T10:33:35.987Z,8.41
2022-12-27T10:34:36.065Z,8.11
2022-12-27T10:35:36.157Z,8.75
2022-12-27T10:36:36.246Z,8.64
2022-12-27T10:37:36.346Z,8.60
2022-12-27T10:38:36.451Z,8.34
2022-12-27T10:39:36.565Z,8.09
2022-12-27T10:40:36.659Z,8.01
2022-12-27T10:41:36.782Z,7.75
2022-12-27T10:42:36.871Z,7.66
2022-12-27T10:43:36.975Z,8.11
2022-12-27T10:44:37.094Z,8.46
2022-12-27T10:45:37.182Z,8.26
2022-12-27T10:46:37.334Z,8.54
2022-12-27T10:47:37.434Z,8.74
2022-12-27T10:49:02.645Z,9.58
2022-12-27T10:49:38.670Z,9.72
2022-12-27T10:50:37.753Z,9.09
2022-12-27T10:51:37.846Z,8.53
2022-12-27T10:52:38.075Z,8.18
2022-12-27T10:53:38.062Z,7.99
2022-12-27T10:54:38.251Z,7.85
2022-12-27T10:55:38.246Z,7.74
2022-12-27T10:56:38.365Z,7.47
2022-12-27T10:57:38.482Z,7.37
2022-12-27T10:58:38.601Z,7.29
2022-12-27T10:59:38.767Z,7.31
2022-12-27T11:00:38.908Z,7.31
2022-12-27T11:01:39.142Z,7.31
2022-12-27T11:02:39.221Z,7.29
2022-12-27T11:03:39.208Z,7.26
2022-12-27T11:04:39.338Z,7.29
2022-12-27T11:05:39.482Z,7.22
2022-12-27T11:06:39.615Z,7.22
2022-12-27T11:07:39.756Z,7.19
2022-12-27T11:08:39.905Z,7.13
2022-12-27T11:09:42.397Z,7.10
2022-12-27T11:10:41.126Z,7.07
2022-12-27T11:11:40.268Z,7.04
2022-12-27T11:12:40.393Z,7.08
2022-12-27T11:13:47.534Z,7.08
2022-12-27T11:14:40.684Z,7.10
2022-12-27T11:15:41.544Z,7.03
2022-12-27T11:16:40.937Z,6.93
2022-12-27T11:17:41.109Z,6.92
2022-12-27T11:18:41.258Z,6.90
2022-12-27T11:19:41.410Z,6.86
2022-12-27T11:20:41.581Z,6.89
2022-12-27T11:21:41.711Z,6.86
2022-12-27T11:22:41.868Z,6.85
2022-12-27T11:23:42.021Z,6.86
2022-12-27T11:24:42.178Z,6.85
2022-12-27T11:25:42.340Z,6.80
2022-12-27T11:26:42.481Z,6.77
2022-12-27T11:27:42.629Z,6.77
2022-12-27T11:28:42.800Z,6.77
2022-12-27T11:29:42.965Z,6.82
2022-12-27T11:30:43.122Z,6.82
2022-12-27T11:31:43.306Z,6.82
2022-12-27T11:32:43.462Z,6.82
2022-12-27T11:33:43.587Z,6.83
2022-12-27T11:34:43.779Z,6.85
2022-12-27T11:35:43.920Z,6.85
2022-12-27T11:36:44.168Z,6.87
2022-12-27T11:37:45.180Z,6.86
2022-12-27T11:38:44.372Z,6.86
2022-12-27T11:39:44.597Z,6.85
2022-12-27T11:40:44.639Z,6.83
2022-12-27T11:41:44.821Z,6.80
2022-12-27T11:42:45.066Z,6.83
2022-12-27T11:43:45.118Z,6.89
2022-12-27T11:44:45.322Z,6.90
2022-12-27T11:45:45.479Z,7.00
2022-12-27T11:46:45.683Z,7.05
2022-12-27T11:47:46.824Z,7.07
2022-12-27T11:48:46.005Z,7.08
2022-12-27T11:49:46.191Z,7.11
2022-12-27T11:50:46.343Z,7.11
2022-12-27T11:51:46.499Z,7.14
2022-12-27T11:52:46.658Z,7.10
2022-12-27T11:53:48.771Z,7.11
2022-12-27T11:54:47.920Z,7.04
2022-12-27T11:55:47.064Z,7.04
2022-12-27T11:56:47.226Z,7.01
2022-12-27T11:57:47.360Z,7.00
2022-12-27T11:58:47.515Z,7.03
2022-12-27T11:59:47.689Z,7.07
2022-12-27T12:00:47.841Z,7.05
2022-12-27T12:01:48.078Z,7.05
2022-12-27T12:02:48.389Z,7.10
2022-12-27T12:03:48.375Z,7.08
2022-12-27T12:04:48.409Z,7.07
2022-12-27T12:05:48.559Z,7.04
2022-12-27T12:06:48.728Z,7.05
2022-12-27T12:07:48.891Z,7.08
2022-12-27T12:08:49.063Z,7.11
2022-12-27T12:09:49.258Z,7.14
2022-12-27T12:10:49.399Z,7.10
2022-12-27T12:11:54.595Z,7.07
2022-12-27T12:12:50.649Z,7.07
2022-12-27T12:13:49.810Z,7.11
2022-12-27T12:14:49.974Z,7.14
2022-12-27T12:15:50.117Z,7.19
2022-12-27T12:16:50.362Z,7.23
2022-12-27T12:17:50.432Z,7.23
2022-12-27T12:18:50.586Z,7.23
2022-12-27T12:19:50.733Z,7.28
2022-12-27T12:20:51.294Z,7.36
2022-12-27T12:21:51.012Z,7.36
2022-12-27T12:22:51.158Z,7.33
2022-12-27T12:23:51.302Z,7.32
2022-12-27T12:24:51.460Z,7.33
2022-12-27T12:25:51.614Z,7.37
2022-12-27T12:26:55.865Z,7.39
2022-12-27T12:27:51.911Z,7.50
2022-12-27T12:29:00.413Z,7.66
2022-12-27T12:29:53.195Z,7.66
2022-12-27T12:30:52.347Z,7.62
2022-12-27T12:31:52.527Z,7.59
2022-12-27T12:32:52.614Z,7.51
2022-12-27T12:33:52.764Z,7.56
2022-12-27T12:34:52.919Z,8.03
2022-12-27T12:35:53.057Z,8.38
2022-12-27T12:36:53.211Z,8.44
2022-12-27T12:37:53.348Z,8.09
2022-12-27T12:38:53.498Z,7.83
2022-12-27T12:39:53.632Z,7.64
2022-12-27T12:40:53.797Z,7.55
2022-12-27T12:41:53.944Z,7.46
2022-12-27T12:42:54.125Z,7.74
2022-12-27T12:43:54.229Z,7.67
2022-12-27T12:44:54.372Z,8.03
2022-12-27T12:45:54.546Z,7.98
2022-12-27T12:46:54.670Z,8.61
2022-12-27T12:47:54.803Z,9.16
2022-12-27T12:48:54.970Z,9.49
2022-12-27T12:49:55.109Z,9.63
2022-12-27T12:50:55.269Z,9.70
2022-12-27T12:51:55.384Z,9.87
2022-12-27T12:52:55.510Z,10.20
2022-12-27T12:53:55.628Z,10.30
2022-12-27T12:54:55.756Z,10.13
2022-12-27T12:55:55.879Z,10.10
2022-12-27T12:56:56.002Z,9.90
2022-12-27T12:57:56.131Z,9.56
2022-12-27T12:58:56.233Z,9.44
2022-12-27T12:59:56.337Z,9.44
2022-12-27T13:00:56.503Z,9.40
2022-12-27T13:01:56.807Z,9.30
2022-12-27T13:02:56.823Z,8.95
2022-12-27T13:03:57.209Z,8.92
2022-12-27T13:04:56.877Z,8.74
2022-12-27T13:05:56.987Z,8.60
2022-12-27T13:06:57.122Z,8.52
2022-12-27T13:07:57.234Z,8.42
2022-12-27T13:08:57.356Z,8.44
2022-12-27T13:09:57.462Z,8.50
2022-12-27T13:10:57.599Z,8.54
2022-12-27T13:11:57.707Z,8.34
2022-12-27T13:12:57.840Z,8.17
2022-12-27T13:13:57.971Z,8.24
2022-12-27T13:14:58.130Z,8.16
2022-12-27T13:15:58.245Z,8.24
2022-12-27T13:16:58.441Z,8.46
2022-12-27T13:17:58.530Z,8.36
2022-12-27T13:18:58.678Z,8.31
2022-12-27T13:19:58.808Z,8.46
2022-12-27T13:20:58.948Z,8.46
2022-12-27T13:21:59.077Z,8.52